Time;durP1;ratioP1;P1;durP2;ratioP2;P2;SDS_P1;SDS_P2;PMS_P1;PMS_P2;Temp;Humidity;BMP_temperature;BMP_pressure;BME280_temperature;BME280_humidity;BME280_pressure;Samples;Min_cycle;Max_cycle;Signal;HPM_P1;HPM_P2
2022/01/16 00:00:20;;;;;;;5.20;2.88;;;23.20;34.50;;;;;;5026187;28;20089;-50
2022/01/16 00:05:26;;;;;;;5.25;3.20;;;23.10;34.60;;;;;;5026163;28;20053;-47
2022/01/16 00:07:52;;;;;;;4.85;3.25;;;23.20;34.60;;;;;;5025043;28;20100;-50
2022/01/16 00:10:19;;;;;;;4.05;2.70;;;23.10;34.50;;;;;;5025379;28;20022;-48
2022/01/16 00:12:48;;;;;;;4.88;3.15;;;23.10;34.50;;;;;;5026098;28;20104;-49
2022/01/16 00:15:19;;;;;;;4.50;2.92;;;23.10;34.50;;;;;;5025599;28;20079;-49
2022/01/16 00:18:09;;;;;;;4.28;2.88;;;23.10;34.50;;;;;;5026669;28;20272;-48
2022/01/16 00:20:35;;;;;;;4.70;2.88;;;23.10;34.50;;;;;;5022900;28;20033;-49
2022/01/16 00:23:04;;;;;;;4.93;3.20;;;23.10;34.50;;;;;;5023591;28;20500;-48
2022/01/16 00:25:30;;;;;;;6.03;3.58;;;23.10;34.50;;;;;;5025628;28;20116;-49
2022/01/16 00:27:55;;;;;;;4.53;2.85;;;23.10;34.50;;;;;;5024812;28;20108;-49
2022/01/16 00:30:21;;;;;;;4.50;3.03;;;23.00;34.40;;;;;;5025149;28;20128;-48
2022/01/16 00:32:47;;;;;;;3.88;2.60;;;23.10;34.50;;;;;;5025320;28;20030;-49
2022/01/16 00:35:14;;;;;;;4.80;2.97;;;23.00;34.40;;;;;;5018149;28;20037;-49
2022/01/16 00:37:40;;;;;;;5.05;3.20;;;23.00;34.40;;;;;;5005134;28;20061;-49
2022/01/16 00:40:08;;;;;;;5.30;2.92;;;23.00;34.40;;;;;;5004319;28;20061;-48
2022/01/16 00:42:34;;;;;;;4.88;3.30;;;23.00;34.40;;;;;;5005173;28;20033;-49
2022/01/16 00:44:59;;;;;;;4.72;3.00;;;23.00;34.40;;;;;;5005087;28;20438;-49
2022/01/16 00:47:25;;;;;;;4.30;2.72;;;23.00;34.30;;;;;;5005952;28;20037;-49
2022/01/16 00:49:51;;;;;;;4.90;2.97;;;23.00;34.40;;;;;;5007707;28;20033;-49
2022/01/16 00:52:17;;;;;;;4.90;3.05;;;23.00;34.40;;;;;;5024389;28;20108;-49
2022/01/16 00:54:42;;;;;;;4.82;3.20;;;22.90;34.40;;;;;;5025307;28;20144;-49
2022/01/16 00:57:08;;;;;;;4.80;3.05;;;22.90;34.40;;;;;;5024785;28;20083;-48
2022/01/16 00:59:34;;;;;;;4.47;3.03;;;22.90;34.40;;;;;;5024685;28;20029;-49
2022/01/16 01:02:00;;;;;;;5.47;3.50;;;22.90;34.40;;;;;;5023699;28;20033;-48
2022/01/16 01:04:26;;;;;;;4.78;3.20;;;22.90;34.40;;;;;;5006787;28;20036;-49
2022/01/16 01:06:53;;;;;;;4.40;2.85;;;22.90;34.30;;;;;;5004866;28;20038;-49
2022/01/16 01:09:19;;;;;;;4.70;2.63;;;22.90;34.40;;;;;;5017353;28;20040;-50
2022/01/16 01:11:49;;;;;;;4.88;2.90;;;22.90;34.40;;;;;;5023053;28;20119;-49
2022/01/16 01:14:37;;;;;;;5.63;3.28;;;22.90;34.40;;;;;;5025098;28;20026;-51
2022/01/16 01:17:04;;;;;;;5.32;3.22;;;22.90;34.40;;;;;;5025068;28;20052;-49
2022/01/16 01:19:33;;;;;;;5.07;3.45;;;22.80;34.30;;;;;;5024047;28;20034;-49
2022/01/16 01:22:00;;;;;;;4.97;3.17;;;22.80;34.20;;;;;;5019999;28;20652;-49
2022/01/16 01:24:27;;;;;;;4.22;3.15;;;22.80;34.20;;;;;;5003854;28;20084;-49
2022/01/16 01:29:21;;;;;;;4.95;2.97;;;22.80;34.20;;;;;;5005029;28;20120;-47
2022/01/16 01:31:49;;;;;;;4.38;2.88;;;22.80;34.20;;;;;;5009536;28;20076;-48
2022/01/16 01:34:15;;;;;;;4.90;2.70;;;22.80;34.20;;;;;;5024747;28;20030;-50
2022/01/16 01:36:40;;;;;;;4.60;3.13;;;22.80;34.30;;;;;;5007392;28;20116;-49
2022/01/16 01:39:06;;;;;;;4.55;3.25;;;22.80;34.30;;;;;;5004630;28;20239;-50
2022/01/16 01:41:32;;;;;;;4.40;2.92;;;22.80;34.20;;;;;;5004751;28;20111;-48
2022/01/16 01:52:11;;;;;;;4.95;3.38;;;22.70;34.20;;;;;;5003479;28;20121;-50
2022/01/16 01:54:37;;;;;;;4.45;3.08;;;22.70;34.20;;;;;;5002998;28;20101;-49
2022/01/16 01:57:02;;;;;;;4.47;2.88;;;22.70;34.20;;;;;;5003957;28;20077;-51
2022/01/16 01:59:28;;;;;;;4.05;2.63;;;22.70;34.20;;;;;;5004431;28;20084;-51
2022/01/16 02:01:54;;;;;;;4.95;3.13;;;22.60;34.20;;;;;;5008944;28;20621;-50
2022/01/16 02:04:20;;;;;;;4.47;2.88;;;22.70;34.20;;;;;;5024038;28;20068;-49
2022/01/16 02:06:46;;;;;;;4.60;3.10;;;22.60;34.20;;;;;;5005923;28;20026;-48
2022/01/16 02:09:12;;;;;;;4.93;3.15;;;22.60;34.20;;;;;;5014985;28;20049;-50
2022/01/16 02:11:37;;;;;;;4.57;2.85;;;22.60;34.10;;;;;;5023086;28;20546;-49
2022/01/16 02:14:24;;;;;;;4.72;2.92;;;22.60;34.10;;;;;;5023251;28;20072;-48
2022/01/16 02:28:13;;;;;;;4.35;2.80;;;22.60;34.20;;;;;;5002576;28;20053;-49
2022/01/16 02:35:40;;;;;;;5.05;3.13;;;22.50;34.20;;;;;;5020687;28;20057;-49
2022/01/16 02:38:09;;;;;;;4.90;3.42;;;22.50;34.10;;;;;;5008083;28;20029;-50
2022/01/16 02:40:38;;;;;;;5.43;3.55;;;22.50;34.20;;;;;;5007557;28;20033;-49
2022/01/16 02:43:05;;;;;;;5.85;3.58;;;22.50;34.20;;;;;;5007602;28;20126;-50
2022/01/16 02:45:33;;;;;;;4.55;2.95;;;22.50;34.10;;;;;;5007806;28;20064;-48
2022/01/16 02:48:07;;;;;;;5.28;3.10;;;22.40;34.10;;;;;;5007693;28;20066;-50
2022/01/16 02:50:37;;;;;;;4.00;2.72;;;22.50;34.20;;;;;;5013897;28;20083;-48
2022/01/16 02:53:09;;;;;;;5.03;3.20;;;22.50;34.10;;;;;;5027267;28;20053;-49
2022/01/16 02:55:35;;;;;;;4.47;3.08;;;22.50;34.20;;;;;;5026576;28;20029;-54
2022/01/16 02:58:00;;;;;;;4.82;3.20;;;22.50;34.10;;;;;;5026692;28;20108;-48
2022/01/16 03:00:26;;;;;;;4.65;2.95;;;22.40;34.10;;;;;;5026429;28;20044;-50
2022/01/16 03:02:52;;;;;;;4.80;3.30;;;22.40;34.00;;;;;;5026800;28;20627;-50
2022/01/16 03:05:18;;;;;;;4.43;3.00;;;22.40;34.10;;;;;;5021926;28;20640;-50
2022/01/16 03:07:45;;;;;;;4.53;3.03;;;22.40;34.10;;;;;;5007108;28;20066;-49
2022/01/16 03:10:35;;;;;;;5.90;3.67;;;22.40;34.00;;;;;;5026098;28;20561;-50
2022/01/16 03:13:01;;;;;;;4.32;2.63;;;22.40;34.10;;;;;;5027299;28;20025;-47
2022/01/16 03:15:27;;;;;;;4.00;2.70;;;22.40;34.10;;;;;;5026328;28;20121;-49
2022/01/16 03:23:12;;;;;;;4.35;3.03;;;22.40;34.10;;;;;;5026749;28;20606;-50
2022/01/16 03:25:38;;;;;;;4.43;2.92;;;22.30;34.10;;;;;;5027130;28;20033;-49
2022/01/16 03:28:04;;;;;;;5.00;2.97;;;22.30;34.10;;;;;;5026767;28;20071;-49
2022/01/16 03:30:29;;;;;;;4.38;2.90;;;22.30;34.10;;;;;;5026305;28;20022;-48
2022/01/16 03:32:55;;;;;;;4.57;3.00;;;22.30;34.10;;;;;;5026606;28;20033;-47
2022/01/16 03:35:21;;;;;;;4.28;2.92;;;22.30;34.10;;;;;;5023567;28;20060;-49
2022/01/16 03:37:47;;;;;;;5.50;3.28;;;22.30;34.10;;;;;;5007353;28;20026;-49
2022/01/16 03:40:14;;;;;;;4.22;2.88;;;22.30;34.10;;;;;;5006417;28;20108;-49
2022/01/16 03:42:40;;;;;;;4.68;2.85;;;22.30;34.10;;;;;;5006339;28;20398;-47
2022/01/16 03:45:07;;;;;;;4.80;2.97;;;22.30;34.10;;;;;;5025015;28;20070;-49
2022/01/16 03:47:34;;;;;;;4.38;2.95;;;22.30;34.10;;;;;;5025720;28;20037;-54
2022/01/16 03:50:00;;;;;;;4.82;3.33;;;22.30;34.10;;;;;;5025773;28;20606;-48
2022/01/16 03:52:25;;;;;;;5.47;3.50;;;22.30;34.00;;;;;;5005836;28;20034;-48
2022/01/16 03:54:51;;;;;;;5.15;2.88;;;22.30;34.00;;;;;;5004986;28;20034;-47
2022/01/16 03:57:17;;;;;;;4.57;3.30;;;22.20;33.90;;;;;;5006348;28;20038;-49
2022/01/16 03:59:43;;;;;;;4.18;2.78;;;22.20;33.90;;;;;;5005384;28;20038;-47
2022/01/16 04:02:08;;;;;;;4.38;2.80;;;22.20;34.00;;;;;;5004775;28;20022;-50
2022/01/16 04:04:34;;;;;;;4.82;3.13;;;22.20;34.00;;;;;;5005153;28;20092;-48
2022/01/16 04:07:00;;;;;;;4.97;3.08;;;22.20;33.90;;;;;;5004865;28;20030;-47
2022/01/16 04:09:27;;;;;;;4.55;3.10;;;22.20;33.90;;;;;;5018542;28;20045;-49
2022/01/16 04:11:56;;;;;;;5.07;3.40;;;22.20;34.00;;;;;;5025020;28;20022;-49
2022/01/16 04:15:31;;;;;;;5.10;3.20;;;22.20;33.90;;;;;;5026399;28;20123;-49
2022/01/16 04:17:17;;;;;;;5.38;3.08;;;22.20;33.90;;;;;;5025211;28;20025;-49
2022/01/16 04:19:44;;;;;;;4.63;3.10;;;22.20;33.90;;;;;;5025134;28;20040;-49
2022/01/16 04:22:11;;;;;;;4.63;3.13;;;22.10;33.90;;;;;;5024984;28;20068;-49
2022/01/16 04:24:37;;;;;;;4.68;3.10;;;22.10;33.90;;;;;;5025698;28;20108;-49
2022/01/16 04:27:04;;;;;;;4.53;2.92;;;22.20;33.90;;;;;;5023847;28;20128;-48
2022/01/16 04:29:29;;;;;;;4.70;3.10;;;22.10;34.00;;;;;;5025191;28;20017;-49
2022/01/16 04:31:55;;;;;;;4.70;3.33;;;22.10;33.90;;;;;;5024731;28;20885;-47
2022/01/16 04:34:21;;;;;;;4.70;2.88;;;22.10;33.90;;;;;;5025658;28;20033;-49
2022/01/16 04:36:47;;;;;;;4.88;2.97;;;22.10;34.00;;;;;;5011277;28;20386;-49
2022/01/16 04:39:16;;;;;;;4.32;3.03;;;22.10;33.90;;;;;;5005616;28;20044;-48
2022/01/16 04:44:26;;;;;;;4.95;3.08;;;22.10;33.90;;;;;;5020007;28;20444;-50
2022/01/16 04:46:53;;;;;;;5.28;3.22;;;22.10;34.00;;;;;;5025276;28;20034;-48
2022/01/16 04:49:19;;;;;;;5.22;3.28;;;22.10;33.90;;;;;;5024598;28;20044;-49
2022/01/16 04:51:45;;;;;;;4.78;2.97;;;22.00;33.90;;;;;;5011411;28;20122;-49
2022/01/16 04:54:11;;;;;;;4.60;2.90;;;22.00;33.90;;;;;;5004925;28;20097;-50
2022/01/16 04:56:37;;;;;;;4.57;3.15;;;22.00;33.90;;;;;;5005338;28;20113;-49
2022/01/16 04:59:03;;;;;;;5.45;3.50;;;22.00;33.90;;;;;;5005071;28;20549;-48
2022/01/16 05:01:28;;;;;;;4.82;3.20;;;22.00;33.90;;;;;;5004215;28;20544;-50
2022/01/16 05:03:54;;;;;;;5.28;3.70;;;22.00;34.00;;;;;;5003678;28;20516;-49
2022/01/16 05:06:20;;;;;;;4.97;3.50;;;22.00;34.00;;;;;;5003300;28;20109;-48
2022/01/16 05:08:46;;;;;;;5.22;3.65;;;22.00;33.90;;;;;;5013183;28;20104;-48
2022/01/16 05:11:14;;;;;;;4.35;3.20;;;22.00;34.00;;;;;;5024409;28;20035;-50
2022/01/16 05:18:51;;;;;;;5.78;3.63;;;22.00;33.90;;;;;;5024867;28;20028;-50
2022/01/16 05:21:17;;;;;;;4.88;3.05;;;22.00;33.90;;;;;;5015109;28;20026;-49
2022/01/16 05:23:43;;;;;;;5.13;3.50;;;21.90;33.90;;;;;;5005253;28;20448;-49
2022/01/16 05:26:11;;;;;;;5.07;3.30;;;22.00;33.90;;;;;;5020182;28;20033;-49
2022/01/16 05:28:37;;;;;;;5.97;3.25;;;21.90;33.90;;;;;;5024142;28;20034;-47
2022/01/16 05:31:04;;;;;;;5.20;3.70;;;22.00;33.80;;;;;;5024169;28;20084;-48
2022/01/16 05:33:30;;;;;;;5.15;3.30;;;21.90;33.80;;;;;;5023806;28;20060;-49
2022/01/16 05:35:56;;;;;;;4.97;3.15;;;21.90;33.80;;;;;;5024667;28;20017;-50
2022/01/16 05:38:23;;;;;;;5.03;3.40;;;21.90;33.80;;;;;;5024455;28;20034;-50
2022/01/16 05:40:48;;;;;;;5.40;3.42;;;21.90;33.80;;;;;;5024348;28;20029;-48
2022/01/16 05:43:14;;;;;;;5.13;3.60;;;21.90;33.80;;;;;;5024299;28;20033;-50
2022/01/16 05:45:41;;;;;;;5.60;3.88;;;21.90;33.80;;;;;;5024137;28;20092;-48
2022/01/16 05:48:07;;;;;;;4.30;3.10;;;21.90;33.80;;;;;;5024370;28;20029;-49
2022/01/16 05:50:33;;;;;;;4.82;3.08;;;21.80;33.70;;;;;;5023711;28;20505;-48
2022/01/16 05:53:00;;;;;;;4.47;3.25;;;21.90;33.90;;;;;;5024341;28;20048;-49
2022/01/16 05:55:31;;;;;;;5.20;3.70;;;21.80;33.70;;;;;;5024775;28;20040;-49
2022/01/16 05:57:57;;;;;;;4.68;3.22;;;21.80;33.70;;;;;;5023541;28;20037;-49
2022/01/16 06:00:23;;;;;;;4.93;3.05;;;21.80;33.80;;;;;;5024230;28;20571;-48
2022/01/16 06:02:49;;;;;;;4.68;3.40;;;21.80;33.80;;;;;;5023461;28;20048;-48
2022/01/16 06:05:16;;;;;;;5.05;3.33;;;21.80;33.70;;;;;;5023972;28;20281;-48
2022/01/16 06:07:51;;;;;;;5.50;3.22;;;21.80;33.70;;;;;;5006475;28;20100;-49
2022/01/16 06:10:17;;;;;;;4.90;3.40;;;21.80;33.80;;;;;;5007731;28;20023;-49
2022/01/16 06:12:43;;;;;;;5.47;3.83;;;21.80;33.80;;;;;;5008929;28;20061;-51
2022/01/16 06:15:09;;;;;;;5.03;3.63;;;21.80;33.80;;;;;;5027594;28;20060;-49
2022/01/16 06:17:34;;;;;;;4.30;3.25;;;21.80;33.80;;;;;;5027695;28;20452;-49
2022/01/16 06:20:01;;;;;;;5.35;3.72;;;21.80;33.90;;;;;;5027209;28;20685;-48
2022/01/16 06:22:26;;;;;;;5.25;3.53;;;21.80;33.90;;;;;;5010236;28;20026;-49
2022/01/16 06:24:52;;;;;;;4.90;3.08;;;21.80;34.00;;;;;;5007782;28;20033;-48
2022/01/16 06:27:18;;;;;;;5.47;3.60;;;21.80;34.00;;;;;;5007465;28;20113;-49
2022/01/16 06:29:44;;;;;;;4.50;3.30;;;21.80;34.00;;;;;;5007664;28;20026;-48
2022/01/16 06:32:10;;;;;;;5.13;3.63;;;21.80;34.00;;;;;;5007665;28;20169;-49
2022/01/16 06:34:35;;;;;;;4.85;3.33;;;21.80;34.10;;;;;;5007580;28;20030;-50
2022/01/16 06:37:01;;;;;;;4.55;3.15;;;21.80;34.00;;;;;;5006839;28;20478;-51
2022/01/16 06:39:29;;;;;;;5.95;3.70;;;21.80;34.00;;;;;;5007736;28;20120;-49
2022/01/16 06:41:55;;;;;;;5.50;3.83;;;21.80;34.00;;;;;;5006718;28;20132;-48
2022/01/16 06:44:21;;;;;;;4.25;3.08;;;21.80;34.00;;;;;;5021320;28;20056;-52
2022/01/16 06:46:47;;;;;;;4.60;3.25;;;21.80;34.00;;;;;;5025995;28;20562;-49
2022/01/16 06:49:13;;;;;;;4.97;3.25;;;21.80;33.90;;;;;;5026485;28;20086;-50
2022/01/16 06:51:38;;;;;;;4.82;3.33;;;21.80;34.00;;;;;;5025536;28;20029;-48
2022/01/16 06:54:05;;;;;;;5.18;3.78;;;21.90;34.00;;;;;;5025862;28;20027;-49
2022/01/16 06:56:31;;;;;;;5.15;3.40;;;21.90;34.10;;;;;;5026805;28;20057;-49
2022/01/16 06:58:58;;;;;;;5.05;3.22;;;21.90;34.10;;;;;;5025723;28;20414;-50
2022/01/16 07:01:26;;;;;;;4.68;3.28;;;22.00;34.10;;;;;;5024828;28;20029;-50
2022/01/16 07:03:53;;;;;;;4.85;3.33;;;22.00;34.20;;;;;;5022302;28;20309;-50
2022/01/16 07:06:20;;;;;;;5.85;3.65;;;22.10;34.30;;;;;;5019242;28;20084;-49
2022/01/16 07:08:45;;;;;;;4.75;3.22;;;22.20;34.30;;;;;;5015260;28;20033;-48
2022/01/16 07:11:11;;;;;;;4.43;3.05;;;22.20;34.30;;;;;;5026070;28;20043;-47
2022/01/16 07:13:37;;;;;;;4.78;3.72;;;22.30;34.30;;;;;;5026337;28;20061;-47
2022/01/16 07:16:03;;;;;;;4.57;3.38;;;22.30;34.20;;;;;;5040827;28;20053;-47
2022/01/16 07:18:29;;;;;;;5.43;3.65;;;22.40;34.10;;;;;;5019079;28;20131;-45
2022/01/16 07:20:55;;;;;;;4.80;3.15;;;22.50;34.20;;;;;;5019478;28;20021;-47
2022/01/16 07:23:21;;;;;;;4.72;3.38;;;22.50;34.10;;;;;;5017250;28;20216;-47
2022/01/16 07:25:47;;;;;;;4.80;3.78;;;22.60;34.00;;;;;;5016308;28;20563;-49
2022/01/16 07:28:13;;;;;;;5.30;3.78;;;22.70;34.00;;;;;;5016965;28;20052;-48
2022/01/16 07:30:39;;;;;;;4.60;3.50;;;22.80;33.90;;;;;;5014213;28;20104;-46
2022/01/16 07:33:07;;;;;;;6.63;3.50;;;22.80;33.80;;;;;;5013042;28;20125;-48
2022/01/16 07:35:34;;;;;;;4.88;3.47;;;22.90;34.40;;;;;;5006900;28;20401;-48
2022/01/16 07:38:01;;;;;;;4.97;3.58;;;23.00;33.60;;;;;;5008607;28;20101;-48
2022/01/16 07:40:27;;;;;;;5.47;3.70;;;23.10;33.60;;;;;;5017936;28;20068;-48
2022/01/16 07:42:54;;;;;;;5.82;4.00;;;23.10;33.60;;;;;;5023057;28;20029;-50
2022/01/16 07:45:20;;;;;;;4.72;3.33;;;23.20;33.60;;;;;;5025109;28;20114;-47
2022/01/16 07:47:46;;;;;;;6.03;4.13;;;23.30;33.60;;;;;;5024808;28;20048;-49
2022/01/16 07:50:13;;;;;;;7.15;4.43;;;23.30;33.60;;;;;;5015533;28;20041;-49
2022/01/16 07:52:39;;;;;;;5.78;4.05;;;23.40;33.70;;;;;;5022186;28;20133;-48
2022/01/16 07:55:05;;;;;;;7.60;4.43;;;23.50;34.00;;;;;;5021003;28;20156;-53
2022/01/16 07:57:31;;;;;;;7.30;4.32;;;23.50;34.20;;;;;;5023454;28;20041;-49
2022/01/16 07:59:56;;;;;;;8.55;5.10;;;23.60;34.20;;;;;;5025210;28;20533;-48
2022/01/16 08:02:22;;;;;;;6.80;4.55;;;23.60;34.30;;;;;;5023908;28;20041;-48
2022/01/16 08:04:48;;;;;;;8.80;4.57;;;23.70;34.20;;;;;;5025746;28;20041;-49
2022/01/16 08:07:14;;;;;;;7.70;5.13;;;23.80;34.10;;;;;;5011583;28;20104;-48
2022/01/16 08:09:40;;;;;;;6.07;3.95;;;23.80;33.90;;;;;;5020767;28;20569;-46
2022/01/16 08:12:07;;;;;;;6.65;4.43;;;23.90;33.90;;;;;;5025196;28;20465;-47
2022/01/16 08:14:34;;;;;;;6.30;4.68;;;23.90;33.70;;;;;;5025329;28;20281;-47
2022/01/16 08:17:00;;;;;;;6.60;4.70;;;24.00;33.60;;;;;;5025103;28;20108;-47
2022/01/16 08:19:27;;;;;;;6.82;4.75;;;24.00;33.50;;;;;;5025153;28;20445;-48
2022/01/16 08:21:52;;;;;;;7.25;4.90;;;24.10;33.50;;;;;;5013657;28;20033;-48
2022/01/16 08:24:18;;;;;;;6.78;4.88;;;24.10;33.30;;;;;;5005318;28;20103;-46
2022/01/16 08:26:44;;;;;;;6.13;4.60;;;24.20;33.20;;;;;;5014655;28;20025;-49
2022/01/16 08:29:10;;;;;;;6.38;4.40;;;24.30;33.20;;;;;;5023073;28;20021;-48
2022/01/16 08:31:36;;;;;;;6.10;4.63;;;24.30;33.10;;;;;;5022864;28;20028;-50
2022/01/16 08:34:02;;;;;;;6.60;4.50;;;24.30;33.00;;;;;;5024593;28;20048;-50
2022/01/16 08:36:28;;;;;;;6.80;4.95;;;24.40;32.80;;;;;;5016282;28;20526;-49
2022/01/16 08:38:54;;;;;;;6.65;4.60;;;24.40;32.80;;;;;;4999981;28;20030;-50
2022/01/16 08:41:21;;;;;;;6.18;3.95;;;24.40;32.70;;;;;;5003495;28;20092;-50
2022/01/16 08:43:47;;;;;;;5.18;4.18;;;24.50;32.70;;;;;;5014656;28;20029;-50
2022/01/16 08:46:13;;;;;;;6.85;5.18;;;24.50;32.60;;;;;;5007408;28;20052;-50
2022/01/16 08:48:39;;;;;;;6.10;4.45;;;24.50;32.60;;;;;;5007530;28;20113;-49
2022/01/16 08:51:06;;;;;;;6.60;4.78;;;24.60;32.50;;;;;;5020502;28;20061;-49
2022/01/16 08:53:31;;;;;;;7.63;4.97;;;24.60;32.40;;;;;;5014921;28;20049;-49
2022/01/16 08:55:59;;;;;;;5.45;4.32;;;24.70;32.40;;;;;;5016466;28;20075;-50
2022/01/16 08:58:25;;;;;;;7.05;4.82;;;24.70;32.30;;;;;;5003594;28;20044;-49
2022/01/16 09:00:51;;;;;;;6.15;4.68;;;24.70;32.20;;;;;;5021057;28;20036;-50
2022/01/16 09:03:19;;;;;;;7.03;4.45;;;24.80;32.20;;;;;;5023802;28;20033;-50
2022/01/16 09:05:45;;;;;;;6.13;4.50;;;24.80;32.10;;;;;;5023647;28;20037;-49
2022/01/16 09:08:11;;;;;;;6.68;4.72;;;24.80;32.00;;;;;;5018536;28;20033;-50
2022/01/16 09:10:37;;;;;;;6.07;5.05;;;24.80;32.00;;;;;;5023342;28;20030;-49
2022/01/16 09:13:04;;;;;;;5.20;3.90;;;24.80;32.30;;;;;;5024050;28;20170;-49
2022/01/16 09:15:30;;;;;;;7.53;4.95;;;24.90;32.50;;;;;;5023618;28;20025;-50
2022/01/16 09:17:56;;;;;;;5.75;4.13;;;24.90;32.60;;;;;;5022915;28;20388;-50
2022/01/16 09:20:22;;;;;;;7.88;4.32;;;24.90;32.80;;;;;;5022484;28;20026;-48
2022/01/16 09:22:49;;;;;;;6.30;4.60;;;24.90;33.00;;;;;;5006792;28;20057;-49
2022/01/16 09:25:17;;;;;;;5.50;4.38;;;25.00;33.10;;;;;;5003543;28;20025;-49
2022/01/16 09:27:43;;;;;;;6.43;4.53;;;25.00;32.90;;;;;;5010378;28;20057;-49
2022/01/16 09:30:11;;;;;;;5.80;4.68;;;25.00;32.90;;;;;;5019252;28;20026;-49
2022/01/16 09:32:37;;;;;;;6.50;4.95;;;25.00;32.90;;;;;;5019984;28;20676;-50
2022/01/16 09:35:05;;;;;;;7.45;4.88;;;25.00;32.80;;;;;;5023074;28;20030;-48
2022/01/16 09:37:31;;;;;;;6.93;4.97;;;25.00;32.90;;;;;;5020992;28;20068;-50
2022/01/16 09:39:58;;;;;;;7.28;5.05;;;25.00;32.80;;;;;;5018093;28;20120;-50
2022/01/16 09:42:24;;;;;;;9.13;6.60;;;25.00;32.80;;;;;;5022355;28;20142;-49
2022/01/16 09:44:50;;;;;;;11.55;7.57;;;25.00;32.70;;;;;;5023287;28;20096;-49
2022/01/16 09:47:17;;;;;;;10.05;7.45;;;25.10;32.50;;;;;;5023314;28;20025;-50
2022/01/16 09:49:42;;;;;;;10.45;7.60;;;25.10;32.60;;;;;;5023279;28;20064;-50
2022/01/16 09:52:08;;;;;;;10.85;7.43;;;25.10;32.60;;;;;;5012145;28;20669;-47
2022/01/16 09:54:37;;;;;;;10.48;7.70;;;25.10;32.70;;;;;;5004505;28;20032;-47
2022/01/16 09:57:03;;;;;;;10.52;7.72;;;25.10;32.60;;;;;;5007261;28;20030;-49
2022/01/16 09:59:29;;;;;;;11.50;8.85;;;25.20;32.60;;;;;;5023645;28;20033;-51
2022/01/16 10:01:55;;;;;;;14.75;10.45;;;25.10;32.40;;;;;;5024122;28;20108;-48
2022/01/16 10:04:29;;;;;;;12.50;9.63;;;25.10;32.50;;;;;;5023330;28;20838;-50
2022/01/16 10:07:01;;;;;;;12.38;9.63;;;25.10;32.50;;;;;;5014858;28;20520;-49
2022/01/16 10:09:27;;;;;;;14.40;10.52;;;25.10;32.50;;;;;;5017525;28;20026;-49
2022/01/16 10:11:58;;;;;;;15.25;12.00;;;25.10;32.40;;;;;;5023796;28;20026;-50
2022/01/16 10:14:29;;;;;;;14.38;11.32;;;25.20;32.30;;;;;;5023660;28;20033;-49
2022/01/16 10:16:55;;;;;;;16.65;12.38;;;25.10;32.40;;;;;;5022357;28;20043;-49
2022/01/16 10:19:27;;;;;;;15.60;12.82;;;25.10;32.30;;;;;;5023792;28;20083;-49
2022/01/16 10:21:54;;;;;;;16.92;13.57;;;25.10;32.30;;;;;;5022762;28;20044;-50
2022/01/16 10:24:29;;;;;;;16.52;13.68;;;25.10;32.30;;;;;;5023106;28;20500;-50
2022/01/16 10:27:14;;;;;;;16.70;13.25;;;25.10;32.30;;;;;;5023735;28;20026;-50
2022/01/16 10:29:56;;;;;;;19.38;14.80;;;25.10;32.30;;;;;;5023050;28;20033;-50
2022/01/16 10:32:28;;;;;;;17.30;13.98;;;25.10;32.30;;;;;;5022806;28;20493;-51
2022/01/16 10:35:06;;;;;;;17.95;15.13;;;25.10;32.20;;;;;;5023455;28;20410;-49
2022/01/16 10:37:32;;;;;;;24.20;17.80;;;25.10;32.20;;;;;;5009750;28;20053;-49
2022/01/16 10:40:12;;;;;;;20.42;16.75;;;25.20;32.10;;;;;;5003407;28;20108;-49
2022/01/16 10:42:39;;;;;;;18.30;15.95;;;25.20;32.20;;;;;;5013660;28;20033;-48
2022/01/16 10:45:10;;;;;;;20.70;18.45;;;25.20;32.10;;;;;;5020371;28;20105;-49
2022/01/16 10:47:51;;;;;;;21.45;18.83;;;25.20;32.10;;;;;;5019117;28;20540;-50
2022/01/16 10:50:19;;;;;;;23.83;20.60;;;25.20;32.20;;;;;;5021720;28;20370;-50
2022/01/16 10:53:04;;;;;;;26.30;23.13;;;25.20;32.60;;;;;;5022327;28;20021;-49
2022/01/16 10:55:32;;;;;;;26.23;23.33;;;25.20;32.70;;;;;;5025644;28;20091;-51
2022/01/16 10:58:21;;;;;;;25.08;22.42;;;25.20;32.80;;;;;;5022274;28;20529;-49
2022/01/16 11:01:04;;;;;;;28.40;24.33;;;25.20;32.70;;;;;;5019117;28;20603;-50
2022/01/16 11:03:50;;;;;;;25.23;22.55;;;25.20;32.50;;;;;;5018928;28;20049;-51
2022/01/16 11:06:18;;;;;;;23.63;20.92;;;25.30;32.50;;;;;;5016518;28;20066;-49
2022/01/16 11:09:01;;;;;;;23.80;21.30;;;25.20;32.40;;;;;;5018494;28;20476;-50
2022/01/16 11:11:27;;;;;;;24.30;21.70;;;25.30;32.50;;;;;;5017182;28;20025;-50
2022/01/16 11:13:56;;;;;;;23.25;20.75;;;25.30;32.40;;;;;;5014703;28;20400;-50
2022/01/16 11:16:23;;;;;;;25.02;21.60;;;25.30;32.40;;;;;;5024908;28;20025;-49
2022/01/16 11:18:51;;;;;;;21.50;19.20;;;25.30;32.50;;;;;;5026230;28;20028;-50
2022/01/16 11:21:27;;;;;;;23.67;21.17;;;25.30;32.60;;;;;;5022802;28;20034;-49
2022/01/16 11:26:22;;;;;;;23.08;20.58;;;25.30;32.60;;;;;;5007477;28;20696;-50
2022/01/16 11:28:50;;;;;;;21.60;18.40;;;25.30;32.60;;;;;;5026265;28;20034;-49
2022/01/16 11:31:17;;;;;;;20.70;18.45;;;25.30;32.60;;;;;;5025804;28;20395;-50
2022/01/16 11:33:44;;;;;;;19.38;17.33;;;25.30;32.50;;;;;;5017956;28;20065;-50
2022/01/16 11:36:17;;;;;;;20.10;17.90;;;25.40;32.40;;;;;;5024400;28;20533;-50
2022/01/16 11:38:50;;;;;;;20.80;18.60;;;25.40;32.50;;;;;;5024030;28;20053;-49
2022/01/16 11:41:18;;;;;;;20.75;18.58;;;25.40;32.40;;;;;;5025146;28;20102;-49
2022/01/16 11:43:52;;;;;;;20.73;17.60;;;25.40;32.40;;;;;;5025735;28;20037;-48
2022/01/16 11:46:21;;;;;;;21.85;18.30;;;25.40;32.30;;;;;;5024584;28;20520;-50
2022/01/16 11:48:59;;;;;;;19.92;17.83;;;25.40;32.30;;;;;;5025418;28;20025;-50
2022/01/16 11:51:39;;;;;;;18.45;16.52;;;25.30;32.30;;;;;;5022557;28;20394;-49
2022/01/16 11:54:08;;;;;;;22.52;18.88;;;25.40;32.50;;;;;;5005977;28;20018;-48
2022/01/16 11:56:40;;;;;;;20.35;17.27;;;25.40;32.60;;;;;;5006028;28;20105;-50
2022/01/16 11:59:12;;;;;;;17.80;15.32;;;25.40;32.80;;;;;;5004970;28;20026;-50
2022/01/16 12:01:53;;;;;;;22.20;18.23;;;25.40;33.00;;;;;;5005801;28;20053;-49
2022/01/16 12:04:27;;;;;;;19.63;17.08;;;25.40;33.00;;;;;;5004897;28;20041;-49
2022/01/16 12:06:53;;;;;;;21.00;17.67;;;25.40;33.00;;;;;;5005661;28;20603;-48
2022/01/16 12:09:35;;;;;;;18.38;15.95;;;25.40;33.10;;;;;;5014379;28;20030;-49
2022/01/16 12:12:01;;;;;;;18.20;16.10;;;25.40;33.20;;;;;;5023356;28;20076;-49
2022/01/16 12:14:49;;;;;;;19.13;16.10;;;25.50;33.70;;;;;;5025928;28;20087;-49
2022/01/16 12:17:41;;;;;;;16.88;14.50;;;25.50;33.80;;;;;;5025654;28;20030;-50
2022/01/16 12:23:03;;;;;;;16.67;14.07;;;25.50;33.70;;;;;;5023808;28;20038;-49
2022/01/16 12:25:36;;;;;;;13.73;12.30;;;25.50;33.50;;;;;;5024962;28;20025;-49
2022/01/16 12:28:04;;;;;;;16.38;14.27;;;25.50;33.50;;;;;;5014816;28;20030;-49
2022/01/16 12:30:55;;;;;;;16.23;13.00;;;25.50;33.40;;;;;;5004925;28;20029;-50
2022/01/16 12:33:24;;;;;;;15.10;12.35;;;25.50;33.30;;;;;;5004287;28;20156;-50
2022/01/16 12:35:50;;;;;;;14.98;13.27;;;25.50;33.30;;;;;;5005307;28;20621;-50
2022/01/16 12:38:25;;;;;;;12.95;11.55;;;25.50;33.30;;;;;;5004889;28;20030;-50
2022/01/16 12:41:07;;;;;;;13.98;12.23;;;25.50;33.20;;;;;;5004507;28;20033;-49
2022/01/16 12:43:43;;;;;;;12.97;10.80;;;25.50;33.10;;;;;;5005748;28;20456;-49
2022/01/16 12:46:12;;;;;;;13.25;11.57;;;25.50;33.00;;;;;;5014478;28;20509;-49
2022/01/16 12:48:43;;;;;;;14.77;11.73;;;25.50;32.90;;;;;;5024092;28;20033;-50
2022/01/16 12:51:10;;;;;;;12.50;11.23;;;25.50;32.90;;;;;;5024430;28;20029;-50
2022/01/16 12:53:41;;;;;;;14.85;12.82;;;25.50;32.80;;;;;;5024017;28;20075;-50
2022/01/16 12:56:22;;;;;;;14.63;12.25;;;25.50;32.80;;;;;;5024499;28;20508;-50
2022/01/16 12:58:51;;;;;;;12.07;10.88;;;25.50;32.80;;;;;;5024567;28;20082;-49
2022/01/16 13:01:18;;;;;;;12.20;10.38;;;25.50;32.70;;;;;;5023633;28;20116;-49
2022/01/16 13:03:44;;;;;;;14.07;10.60;;;25.50;32.70;;;;;;5021671;28;20041;-49
2022/01/16 13:06:22;;;;;;;10.68;9.40;;;25.50;32.70;;;;;;5004970;28;20029;-50
2022/01/16 13:09:11;;;;;;;11.45;9.73;;;25.50;32.60;;;;;;5011661;28;20041;-50
2022/01/16 13:11:41;;;;;;;13.07;10.95;;;25.40;32.50;;;;;;5024410;28;20048;-50
2022/01/16 13:14:15;;;;;;;11.85;9.90;;;25.50;32.50;;;;;;5022074;28;20059;-50
2022/01/16 13:16:48;;;;;;;12.40;9.55;;;25.50;32.50;;;;;;5022109;28;20108;-49
2022/01/16 13:19:21;;;;;;;11.15;9.00;;;25.50;32.40;;;;;;5022367;28;20534;-49
2022/01/16 13:22:13;;;;;;;11.45;9.93;;;25.50;32.30;;;;;;5017507;28;20067;-49
2022/01/16 13:24:44;;;;;;;10.50;8.93;;;25.50;32.30;;;;;;5003936;28;20064;-50
2022/01/16 13:27:26;;;;;;;11.27;9.25;;;25.40;32.30;;;;;;5004347;28;20037;-49
2022/01/16 13:30:03;;;;;;;9.50;7.97;;;25.40;32.30;;;;;;5003920;28;20056;-49
2022/01/16 13:32:31;;;;;;;9.52;8.45;;;25.50;32.30;;;;;;5004049;28;20645;-49
2022/01/16 13:34:57;;;;;;;10.73;8.07;;;25.50;32.20;;;;;;5004173;28;20442;-49